createdAt,value
2023-06-07T00:02:26.706Z,98676.00
2023-06-07T00:08:20.152Z,98677.31
2023-06-07T00:14:20.117Z,98659.28
2023-06-07T00:20:08.162Z,98669.56
2023-06-07T00:32:16.229Z,98674.25
2023-06-07T00:38:16.999Z,98675.72
2023-06-07T00:43:54.725Z,98681.38
2023-06-07T00:49:58.749Z,98687.09
2023-06-07T00:56:04.302Z,98703.19
2023-06-07T01:01:54.744Z,98713.56
2023-06-07T01:07:35.380Z,98718.44
2023-06-07T01:13:39.884Z,98728.28
2023-06-07T01:19:57.710Z,98720.41
2023-06-07T01:26:15.842Z,98730.06
2023-06-07T01:39:09.429Z,98725.66
2023-06-07T01:51:03.255Z,98736.69
2023-06-07T01:56:36.271Z,98743.34
2023-06-07T02:02:13.274Z,98743.34
2023-06-07T02:07:40.270Z,98736.78
2023-06-07T02:13:06.307Z,98735.75
2023-06-07T02:18:35.291Z,98728.19
2023-06-07T02:24:00.415Z,98713.09
2023-06-07T02:29:25.301Z,98692.59
2023-06-07T02:34:53.292Z,98671.72
2023-06-07T02:40:20.288Z,98660.88
2023-06-07T02:45:45.289Z,98637.66
2023-06-07T02:51:12.324Z,98632.22
2023-06-07T02:56:40.439Z,98624.91
2023-06-07T03:02:04.326Z,98617.13
2023-06-07T03:07:33.310Z,98614.44
2023-06-07T03:13:00.308Z,98619.84
2023-06-07T03:18:27.322Z,98618.16
2023-06-07T03:24:03.410Z,98619.84
2023-06-07T03:29:28.323Z,98615.66
2023-06-07T03:34:53.301Z,98605.63
2023-06-07T03:40:22.336Z,98617.69
2023-06-07T03:45:55.313Z,98614.16
2023-06-07T03:51:20.438Z,98605.16
2023-06-07T03:56:50.332Z,98603.47
2023-06-07T04:02:16.377Z,98593.84
2023-06-07T04:07:41.362Z,98598.44
2023-06-07T04:13:09.335Z,98606.38
2023-06-07T04:18:34.344Z,98599.94
2023-06-07T04:24:05.577Z,98611.44
2023-06-07T04:29:33.378Z,98611.06
2023-06-07T04:34:59.344Z,98609.00
2023-06-07T04:40:25.500Z,98619.50
2023-06-07T04:45:54.475Z,98611.53
2023-06-07T04:51:21.390Z,98624.81
2023-06-07T04:56:46.348Z,98622.94
2023-06-07T05:02:14.388Z,98623.91
2023-06-07T05:07:40.399Z,98628.56
2023-06-07T05:13:05.496Z,98623.41
2023-06-07T05:18:33.389Z,98619.69
2023-06-07T05:24:04.449Z,98621.38
2023-06-07T05:29:29.398Z,98635.13
2023-06-07T05:34:57.592Z,98645.25
2023-06-07T05:40:25.450Z,98641.59
2023-06-07T05:45:49.382Z,98645.22
2023-06-07T05:51:18.391Z,98648.31
2023-06-07T05:56:42.419Z,98653.28
2023-06-07T06:02:07.434Z,98661.41
2023-06-07T06:07:35.416Z,98642.94
2023-06-07T06:13:00.445Z,98615.53
2023-06-07T06:18:25.402Z,98632.28
2023-06-07T06:23:54.325Z,98633.22
2023-06-07T06:29:18.477Z,98636.59
2023-06-07T06:34:43.454Z,98650.06
2023-06-07T06:40:12.452Z,98624.94
2023-06-07T06:45:37.472Z,98647.66
2023-06-07T06:51:01.598Z,98661.72
2023-06-07T06:56:30.538Z,98671.44
2023-06-07T07:02:04.516Z,98674.31
2023-06-07T07:07:30.525Z,98671.69
2023-06-07T07:13:02.199Z,98673.44
2023-06-07T07:18:27.451Z,98682.31
2023-06-07T07:23:54.484Z,98672.31
2023-06-07T07:29:22.479Z,98666.88
2023-06-07T07:34:47.511Z,98681.72
2023-06-07T07:40:13.593Z,98673.88
2023-06-07T07:45:40.486Z,98674.53
2023-06-07T07:51:07.499Z,98669.09
2023-06-07T07:56:32.814Z,98673.06
2023-06-07T08:02:00.474Z,98671.66
2023-06-07T08:07:24.507Z,98667.72
2023-06-07T08:12:49.508Z,98658.56
2023-06-07T08:18:16.541Z,98642.59
2023-06-07T08:23:41.581Z,98651.47
2023-06-07T08:29:05.496Z,98657.88
2023-06-07T08:34:35.493Z,98653.72
2023-06-07T08:40:01.502Z,98649.56
2023-06-07T08:45:26.587Z,98647.06
2023-06-07T08:50:54.824Z,98647.63
2023-06-07T08:56:20.518Z,98650.03
2023-06-07T09:01:46.596Z,98645.84
2023-06-07T09:07:18.281Z,98646.53
2023-06-07T09:12:43.510Z,98635.03
2023-06-07T09:18:10.667Z,98638.84
2023-06-07T09:23:38.625Z,98647.06
2023-06-07T09:29:09.573Z,98648.78
2023-06-07T09:34:38.522Z,98656.03
2023-06-07T09:40:06.782Z,98662.56
2023-06-07T09:45:33.558Z,98648.19
2023-06-07T09:51:11.575Z,98663.97
2023-06-07T09:56:39.594Z,98656.47
2023-06-07T10:02:04.590Z,98660.25
2023-06-07T10:07:31.565Z,98661.56
2023-06-07T10:12:59.559Z,98655.91
2023-06-07T10:18:29.658Z,98650.44
2023-06-07T10:24:00.686Z,98645.53
2023-06-07T10:29:39.599Z,98639.59
2023-06-07T10:35:05.602Z,98629.44
2023-06-07T10:40:33.618Z,98628.50
2023-06-07T10:46:00.642Z,98618.28
2023-06-07T10:51:27.848Z,98622.97
2023-06-07T10:56:54.599Z,98623.38
2023-06-07T11:02:34.780Z,98604.41
2023-06-07T11:07:59.793Z,98606.19
2023-06-07T11:13:24.703Z,98607.78
2023-06-07T11:19:15.674Z,98605.91
2023-06-07T11:24:43.940Z,98601.75
2023-06-07T11:30:10.665Z,98599.84
2023-06-07T11:35:40.814Z,98597.84
2023-06-07T11:41:05.632Z,98595.31
2023-06-07T11:46:30.688Z,98578.09
2023-06-07T11:51:58.668Z,98588.91
2023-06-07T11:57:23.650Z,98575.47
2023-06-07T12:02:49.744Z,98577.44
2023-06-07T12:08:21.921Z,98586.81
2023-06-07T12:13:52.731Z,98581.72
2023-06-07T12:19:18.658Z,98578.50
2023-06-07T12:24:48.668Z,98583.38
2023-06-07T12:30:15.693Z,98586.16
2023-06-07T12:35:39.703Z,98578.84
2023-06-07T12:41:07.712Z,98577.66
2023-06-07T12:46:31.960Z,98580.16
2023-06-07T12:51:56.701Z,98587.22
2023-06-07T12:57:25.751Z,98582.22
2023-06-07T13:02:51.819Z,98572.69
2023-06-07T13:08:15.815Z,98573.75
2023-06-07T13:13:44.090Z,98575.28
2023-06-07T13:19:08.689Z,98573.47
2023-06-07T13:24:33.729Z,98570.22
2023-06-07T13:30:02.853Z,98570.09
2023-06-07T13:35:30.114Z,98560.53
2023-06-07T13:40:57.663Z,98564.59
2023-06-07T13:46:26.791Z,98549.75
2023-06-07T13:51:51.748Z,98549.88
2023-06-07T13:57:17.779Z,98536.31
2023-06-07T14:02:44.928Z,98535.13
2023-06-07T14:08:09.738Z,98526.84
2023-06-07T14:13:35.012Z,98536.88
2023-06-07T14:19:02.762Z,98526.06
2023-06-07T14:24:33.761Z,98525.88
2023-06-07T14:29:58.771Z,98517.94
2023-06-07T14:35:26.957Z,98512.56
2023-06-07T14:40:51.896Z,98519.03
2023-06-07T14:46:16.798Z,98512.31
2023-06-07T14:51:44.758Z,98512.50
2023-06-07T14:57:08.785Z,98509.94
2023-06-07T15:02:33.975Z,98504.22
2023-06-07T15:08:00.775Z,98508.78
2023-06-07T15:13:26.919Z,98503.94
2023-06-07T15:18:50.792Z,98502.22
2023-06-07T15:24:19.075Z,98492.34
2023-06-07T15:29:49.856Z,98495.66
2023-06-07T15:35:15.936Z,98480.00
2023-06-07T15:40:42.857Z,98480.16
2023-06-07T15:46:08.024Z,98478.09
2023-06-07T15:51:31.801Z,98476.59
2023-06-07T15:56:59.847Z,98456.28
2023-06-07T16:02:25.878Z,98466.34
2023-06-07T16:07:50.827Z,98472.41
2023-06-07T16:13:17.833Z,98472.38
2023-06-07T16:18:43.855Z,98464.31
2023-06-07T16:24:10.977Z,98467.16
2023-06-07T16:29:45.855Z,98457.00
2023-06-07T16:35:10.915Z,98451.69
2023-06-07T16:40:35.828Z,98451.00
2023-06-07T16:46:03.896Z,98435.75
2023-06-07T16:51:27.882Z,98440.88
2023-06-07T16:56:52.871Z,98437.47
2023-06-07T17:02:19.897Z,98447.59
2023-06-07T17:07:44.867Z,98443.84
2023-06-07T17:13:08.910Z,98444.00
2023-06-07T17:18:36.981Z,98452.28
2023-06-07T17:24:01.254Z,98450.44
2023-06-07T17:29:31.907Z,98461.53
2023-06-07T17:34:59.921Z,98461.56
2023-06-07T17:40:25.892Z,98463.88
2023-06-07T17:45:50.935Z,98471.75
2023-06-07T17:51:17.903Z,98466.56
2023-06-07T17:56:42.901Z,98477.66
2023-06-07T18:02:10.903Z,98476.06
2023-06-07T18:07:38.922Z,98471.84
2023-06-07T18:13:02.917Z,98472.66
2023-06-07T18:18:27.964Z,98472.84
2023-06-07T18:23:56.065Z,98480.66
2023-06-07T18:29:22.954Z,98469.59
2023-06-07T18:34:46.942Z,98467.97
2023-06-07T18:40:15.947Z,98469.44
2023-06-07T18:45:46.066Z,98464.53
2023-06-07T18:56:35.962Z,98459.63
2023-06-07T19:02:03.057Z,98458.53
2023-06-07T19:07:27.093Z,98468.72
2023-06-07T19:12:55.107Z,98475.31
2023-06-07T19:18:27.095Z,98473.28
2023-06-07T19:23:53.120Z,98471.28
2023-06-07T19:29:22.420Z,98471.13
2023-06-07T19:34:46.980Z,98467.19
2023-06-07T19:40:10.993Z,98473.97
2023-06-07T19:45:38.967Z,98478.66
2023-06-07T19:51:03.990Z,98479.09
2023-06-07T19:56:30.000Z,98486.31
2023-06-07T20:01:57.112Z,98491.81
2023-06-07T20:07:23.006Z,98488.31
2023-06-07T20:12:47.034Z,98493.78
2023-06-07T20:18:14.973Z,98486.00
2023-06-07T20:23:39.088Z,98483.72
2023-06-07T20:29:05.025Z,98479.13
2023-06-07T20:34:32.061Z,98485.22
2023-06-07T20:39:57.029Z,98475.38
2023-06-07T20:45:35.035Z,98471.81
2023-06-07T20:51:06.038Z,98482.94
2023-06-07T20:56:30.025Z,98488.81
2023-06-07T21:01:59.138Z,98480.84
2023-06-07T21:07:26.083Z,98484.81
2023-06-07T21:12:51.038Z,98489.41
2023-06-07T21:18:22.087Z,98490.22
2023-06-07T21:23:50.073Z,98487.25
2023-06-07T21:29:14.056Z,98502.34
2023-06-07T21:34:40.093Z,98493.34
2023-06-07T21:40:07.392Z,98500.47
2023-06-07T21:45:34.099Z,98502.34
2023-06-07T21:50:59.061Z,98501.75
2023-06-07T21:56:27.053Z,98497.75
2023-06-07T22:01:51.131Z,98501.91
2023-06-07T22:07:16.061Z,98499.38
2023-06-07T22:12:44.070Z,98488.88
2023-06-07T22:18:16.115Z,98502.69
2023-06-07T22:23:41.123Z,98483.84
2023-06-07T22:29:09.110Z,98487.38
2023-06-07T22:34:36.089Z,98487.16
2023-06-07T22:39:54.081Z,98482.31
2023-06-07T22:45:24.105Z,98484.81
2023-06-07T22:50:59.100Z,98485.63
2023-06-07T22:56:23.116Z,98491.47
2023-06-07T23:01:54.155Z,98487.06
2023-06-07T23:07:18.102Z,98483.91
2023-06-07T23:12:45.125Z,98480.53
2023-06-07T23:18:12.643Z,98482.38
2023-06-07T23:23:45.144Z,98485.53
2023-06-07T23:29:10.155Z,98482.81
2023-06-07T23:34:38.144Z,98481.94
2023-06-07T23:40:03.683Z,98481.56
2023-06-07T23:45:32.151Z,98475.91
2023-06-07T23:51:00.149Z,98474.44
2023-06-07T23:56:24.145Z,98477.53
